createdAt,value
2022-12-28T00:00:25.941Z,62.41
2022-12-28T00:03:50.208Z,62.39
2022-12-28T00:06:53.492Z,62.32
2022-12-28T00:09:56.726Z,62.15
2022-12-28T00:13:00.466Z,62.33
2022-12-28T00:16:37.581Z,62.48
2022-12-28T00:19:40.858Z,62.16
2022-12-28T00:22:44.027Z,62.40
2022-12-28T00:25:49.011Z,62.43
2022-12-28T00:28:55.558Z,62.28
2022-12-28T00:32:03.018Z,62.10
2022-12-28T00:35:06.684Z,62.33
2022-12-28T00:38:10.317Z,62.46
2022-12-28T00:41:13.555Z,62.32
2022-12-28T00:44:19.239Z,62.34
2022-12-28T00:47:25.470Z,62.23
2022-12-28T00:50:28.676Z,62.15
2022-12-28T00:53:32.016Z,62.23
2022-12-28T00:56:35.934Z,62.30
2022-12-28T00:59:39.148Z,62.25
2022-12-28T01:02:42.433Z,62.24
2022-12-28T01:05:45.799Z,62.21
2022-12-28T01:08:48.996Z,62.40
2022-12-28T01:11:52.295Z,62.00
2022-12-28T01:14:55.515Z,62.20
2022-12-28T01:18:00.554Z,62.19
2022-12-28T01:21:15.496Z,62.46
2022-12-28T01:24:19.195Z,62.18
2022-12-28T01:27:22.668Z,62.34
2022-12-28T01:30:25.927Z,62.37
2022-12-28T01:33:29.169Z,62.40
2022-12-28T01:36:35.069Z,62.15
2022-12-28T01:39:38.281Z,62.46
2022-12-28T01:42:41.637Z,62.55
2022-12-28T01:45:51.604Z,62.21
2022-12-28T01:49:02.423Z,62.46
2022-12-28T01:52:17.737Z,62.33
2022-12-28T01:55:24.793Z,62.48
2022-12-28T01:58:32.003Z,62.51
2022-12-28T02:01:35.531Z,62.56
2022-12-28T02:04:38.971Z,62.51
2022-12-28T02:08:03.956Z,62.67
2022-12-28T02:11:12.455Z,62.63
2022-12-28T02:14:16.274Z,62.50
2022-12-28T02:17:19.724Z,62.54
2022-12-28T02:20:30.526Z,62.69
2022-12-28T02:23:48.909Z,62.89
2022-12-28T02:26:56.665Z,62.63
2022-12-28T02:30:04.905Z,62.80
2022-12-28T02:33:15.297Z,63.04
2022-12-28T02:36:28.056Z,62.79
2022-12-28T02:39:40.021Z,62.65
2022-12-28T02:42:45.640Z,62.85
2022-12-28T02:46:08.503Z,62.90
2022-12-28T02:49:42.177Z,62.79
2022-12-28T02:53:03.684Z,62.74
2022-12-28T02:56:33.367Z,62.69
2022-12-28T02:59:49.609Z,62.90
2022-12-28T03:03:18.985Z,62.53
2022-12-28T03:06:43.867Z,62.93
2022-12-28T03:09:53.661Z,62.97
2022-12-28T03:13:33.992Z,62.83
2022-12-28T03:16:58.915Z,62.74
2022-12-28T03:20:29.742Z,62.95
2022-12-28T03:23:53.635Z,62.96
2022-12-28T03:27:17.367Z,62.82
2022-12-28T03:30:44.396Z,62.89
2022-12-28T03:33:52.923Z,63.05
2022-12-28T03:37:17.573Z,62.89
2022-12-28T03:40:25.128Z,63.27
2022-12-28T03:43:45.785Z,62.94
2022-12-28T03:47:08.120Z,63.02
2022-12-28T03:50:12.843Z,63.30
2022-12-28T03:53:24.898Z,63.25
2022-12-28T03:56:30.549Z,63.27
2022-12-28T03:59:36.156Z,63.15
2022-12-28T04:02:39.565Z,63.18
2022-12-28T04:05:42.901Z,63.16
2022-12-28T04:08:47.436Z,63.41
2022-12-28T04:11:50.897Z,63.19
2022-12-28T04:15:00.015Z,63.24
2022-12-28T04:18:04.039Z,63.11
2022-12-28T04:21:07.870Z,63.15
2022-12-28T04:24:11.421Z,63.16
2022-12-28T04:27:15.616Z,63.13
2022-12-28T04:30:19.087Z,63.19
2022-12-28T04:33:22.753Z,62.94
2022-12-28T04:36:26.518Z,63.11
2022-12-28T04:39:55.932Z,63.36
2022-12-28T04:42:53.530Z,63.17
2022-12-28T04:46:08.257Z,63.36
2022-12-28T04:49:11.630Z,63.43
2022-12-28T04:52:14.924Z,63.36
2022-12-28T04:55:32.232Z,63.35
2022-12-28T04:58:37.476Z,63.51
2022-12-28T05:01:40.787Z,63.25
2022-12-28T05:04:44.119Z,63.51
2022-12-28T05:07:47.400Z,63.47
2022-12-28T05:10:50.643Z,63.26
2022-12-28T05:13:54.393Z,63.65
2022-12-28T05:16:57.644Z,63.38
2022-12-28T05:20:00.863Z,63.64
2022-12-28T05:23:04.107Z,63.48
2022-12-28T05:26:11.576Z,63.65
2022-12-28T05:29:14.837Z,63.55
2022-12-28T05:32:18.030Z,63.55
2022-12-28T05:35:21.594Z,63.50
2022-12-28T05:38:24.840Z,63.52
2022-12-28T05:41:29.561Z,63.66
2022-12-28T05:44:32.813Z,63.47
2022-12-28T05:47:36.164Z,63.61
2022-12-28T05:50:40.982Z,63.65
2022-12-28T05:53:44.571Z,63.45
2022-12-28T05:56:50.627Z,63.59
2022-12-28T05:59:53.823Z,63.35
2022-12-28T06:02:57.068Z,63.24
2022-12-28T06:06:24.332Z,63.40
2022-12-28T06:09:27.663Z,63.43
2022-12-28T06:12:30.861Z,63.40
2022-12-28T06:15:34.083Z,63.41
2022-12-28T06:18:37.316Z,63.37
2022-12-28T06:21:41.333Z,63.61
2022-12-28T06:24:44.997Z,63.56
2022-12-28T06:27:48.188Z,63.51
2022-12-28T06:30:52.958Z,63.56
2022-12-28T06:33:59.602Z,63.35
2022-12-28T06:37:04.262Z,63.31
2022-12-28T06:40:07.877Z,63.39
2022-12-28T06:43:11.149Z,63.31
2022-12-28T06:46:16.685Z,63.50
2022-12-28T06:49:19.984Z,63.37
2022-12-28T06:52:23.359Z,63.44
2022-12-28T06:55:26.585Z,63.42
2022-12-28T06:58:31.082Z,63.21
2022-12-28T07:01:37.384Z,63.49
2022-12-28T07:04:40.736Z,63.51
2022-12-28T07:07:46.002Z,63.36
2022-12-28T07:10:51.753Z,63.33
2022-12-28T07:13:55.276Z,63.41
2022-12-28T07:16:58.473Z,63.44
2022-12-28T07:20:01.745Z,63.57
2022-12-28T07:23:04.975Z,63.46
2022-12-28T07:26:11.481Z,63.53
2022-12-28T07:29:14.757Z,63.24
2022-12-28T07:32:17.989Z,63.54
2022-12-28T07:35:21.271Z,63.59
2022-12-28T07:38:24.542Z,63.60
2022-12-28T07:41:30.879Z,63.65
2022-12-28T07:44:38.167Z,63.57
2022-12-28T07:47:41.668Z,63.58
2022-12-28T07:50:44.853Z,63.81
2022-12-28T07:53:50.061Z,63.65
2022-12-28T07:56:53.363Z,63.62
2022-12-28T07:59:56.780Z,63.76
2022-12-28T08:03:00.032Z,63.77
2022-12-28T08:06:20.200Z,63.87
2022-12-28T08:09:23.369Z,63.84
2022-12-28T08:12:26.546Z,63.70
2022-12-28T08:15:32.920Z,63.58
2022-12-28T08:18:36.190Z,63.76
2022-12-28T08:21:44.633Z,63.72
2022-12-28T08:24:47.923Z,63.93
2022-12-28T08:27:51.194Z,63.96
2022-12-28T08:30:55.214Z,63.83
2022-12-28T08:34:00.134Z,63.90
2022-12-28T08:37:03.355Z,63.85
2022-12-28T08:40:07.055Z,63.78
2022-12-28T08:43:10.300Z,63.89
2022-12-28T08:46:17.360Z,63.98
2022-12-28T08:49:20.699Z,63.73
2022-12-28T08:52:24.897Z,63.80
2022-12-28T08:55:28.249Z,63.56
2022-12-28T08:58:31.554Z,63.79
2022-12-28T09:01:43.779Z,63.75
2022-12-28T09:04:47.759Z,63.86
2022-12-28T09:07:59.418Z,63.93
2022-12-28T09:11:05.537Z,63.70
2022-12-28T09:14:10.627Z,63.74
2022-12-28T09:17:13.837Z,63.41
2022-12-28T09:20:17.132Z,63.57
2022-12-28T09:23:20.490Z,63.35
2022-12-28T09:26:26.105Z,63.44
2022-12-28T09:29:29.434Z,63.48
2022-12-28T09:32:32.864Z,63.38
2022-12-28T09:35:36.108Z,63.46
2022-12-28T09:38:39.366Z,63.43
2022-12-28T09:41:42.604Z,63.25
2022-12-28T09:44:49.105Z,63.10
2022-12-28T09:47:58.809Z,63.07
2022-12-28T09:51:02.663Z,62.98
2022-12-28T09:54:05.926Z,62.99
2022-12-28T09:57:18.359Z,63.19
2022-12-28T10:00:22.872Z,63.01
2022-12-28T10:03:38.112Z,62.88
2022-12-28T10:06:41.715Z,63.02
2022-12-28T10:09:46.107Z,63.07
2022-12-28T10:12:51.465Z,62.84
2022-12-28T10:15:55.718Z,63.39
2022-12-28T10:18:59.887Z,63.15
2022-12-28T10:22:07.065Z,62.96
2022-12-28T10:25:17.043Z,62.93
2022-12-28T10:28:24.548Z,62.77
2022-12-28T10:31:40.042Z,62.65
2022-12-28T10:34:58.913Z,62.76
2022-12-28T10:38:05.794Z,62.73
2022-12-28T10:41:11.924Z,62.65
2022-12-28T10:44:41.258Z,62.69
2022-12-28T10:47:49.229Z,62.76
2022-12-28T10:50:55.864Z,62.59
2022-12-28T10:53:59.243Z,62.65
2022-12-28T10:57:03.759Z,62.62
2022-12-28T11:00:14.754Z,62.60
2022-12-28T11:03:19.441Z,62.39
2022-12-28T11:06:28.396Z,62.32
2022-12-28T11:09:35.333Z,62.76
2022-12-28T11:12:44.598Z,62.55
2022-12-28T11:15:47.885Z,62.64
2022-12-28T11:18:51.431Z,62.29
2022-12-28T11:21:54.780Z,62.41
2022-12-28T11:25:01.045Z,62.57
2022-12-28T11:28:16.312Z,62.46
2022-12-28T11:31:34.361Z,62.42
2022-12-28T11:34:38.645Z,62.43
2022-12-28T11:37:52.985Z,62.28
2022-12-28T11:40:56.164Z,62.26
2022-12-28T11:44:05.891Z,62.10
2022-12-28T11:47:20.497Z,61.66
2022-12-28T11:50:36.806Z,61.67
2022-12-28T11:53:46.094Z,61.61
2022-12-28T11:56:49.401Z,61.58
2022-12-28T11:59:53.485Z,61.65
2022-12-28T12:03:01.971Z,61.38
2022-12-28T12:06:07.747Z,61.16
2022-12-28T12:09:26.402Z,61.29
2022-12-28T12:12:29.867Z,61.11
2022-12-28T12:15:41.618Z,61.03
2022-12-28T12:18:50.611Z,60.89
2022-12-28T12:22:10.536Z,60.70
2022-12-28T12:25:52.855Z,60.60
2022-12-28T12:29:16.896Z,60.15
2022-12-28T12:32:44.076Z,60.06
2022-12-28T12:35:58.485Z,60.03
2022-12-28T12:39:31.786Z,59.87
2022-12-28T12:43:10.838Z,59.73
2022-12-28T12:46:51.068Z,59.68
2022-12-28T12:50:48.378Z,59.61
2022-12-28T12:54:18.965Z,59.50
2022-12-28T12:57:48.013Z,59.56
2022-12-28T13:01:13.771Z,59.52
2022-12-28T13:04:29.842Z,59.47
2022-12-28T13:07:34.205Z,59.27
2022-12-28T13:10:44.595Z,59.12
2022-12-28T13:13:51.221Z,59.12
2022-12-28T13:16:57.088Z,59.42
2022-12-28T13:20:21.452Z,59.21
2022-12-28T13:23:25.672Z,59.33
2022-12-28T13:26:29.728Z,59.05
2022-12-28T13:29:40.448Z,59.18
2022-12-28T13:32:51.849Z,59.23
2022-12-28T13:36:19.305Z,59.19
2022-12-28T13:39:23.602Z,59.02
2022-12-28T13:42:40.698Z,59.37
2022-12-28T13:45:49.363Z,59.50
2022-12-28T13:48:58.053Z,59.52
2022-12-28T13:52:02.088Z,59.69
2022-12-28T13:55:20.493Z,59.65
2022-12-28T13:58:27.309Z,59.49
2022-12-28T14:01:36.852Z,59.70
2022-12-28T14:04:52.399Z,59.64
2022-12-28T14:07:58.624Z,60.05
2022-12-28T14:11:04.416Z,59.80
2022-12-28T14:14:09.223Z,59.83
2022-12-28T14:17:13.850Z,59.85
2022-12-28T14:20:18.058Z,59.85
2022-12-28T14:23:22.145Z,59.82
2022-12-28T14:26:26.064Z,59.81
2022-12-28T14:29:35.846Z,59.77
2022-12-28T14:36:08.157Z,59.93
2022-12-28T14:39:40.298Z,60.06
2022-12-28T14:42:50.182Z,59.80
2022-12-28T14:46:07.120Z,59.93
2022-12-28T14:49:30.076Z,60.03
2022-12-28T14:52:35.920Z,59.99
2022-12-28T14:55:51.581Z,60.00
2022-12-28T14:58:59.489Z,60.11
2022-12-28T15:02:03.793Z,60.04
2022-12-28T15:05:32.217Z,60.16
2022-12-28T15:08:36.636Z,60.12
2022-12-28T15:11:39.853Z,59.91
2022-12-28T15:14:43.599Z,60.24
2022-12-28T15:17:47.537Z,60.48
2022-12-28T15:20:51.586Z,60.53
2022-12-28T15:23:58.397Z,60.39
2022-12-28T15:27:02.911Z,60.50
2022-12-28T15:30:08.979Z,60.49
2022-12-28T15:33:14.356Z,60.75
2022-12-28T15:36:20.229Z,60.68
2022-12-28T15:39:25.615Z,60.66
2022-12-28T15:42:30.050Z,60.56
2022-12-28T15:45:35.290Z,60.54
2022-12-28T15:48:42.680Z,60.90
2022-12-28T15:51:49.363Z,60.55
2022-12-28T15:54:52.627Z,60.77
2022-12-28T15:57:55.871Z,61.07
2022-12-28T16:01:00.883Z,60.99
2022-12-28T16:04:10.807Z,60.75
2022-12-28T16:07:14.562Z,60.82
2022-12-28T16:10:19.063Z,60.71
2022-12-28T16:13:22.321Z,60.92
2022-12-28T16:16:27.926Z,61.01
2022-12-28T16:19:31.152Z,61.14
2022-12-28T16:22:34.428Z,61.18
2022-12-28T16:25:37.644Z,61.21
2022-12-28T16:28:41.842Z,61.29
2022-12-28T16:31:45.859Z,61.07
2022-12-28T16:34:49.766Z,61.33
2022-12-28T16:37:55.265Z,61.50
2022-12-28T16:40:58.935Z,61.46
2022-12-28T16:44:15.472Z,61.07
2022-12-28T16:47:18.898Z,61.34
2022-12-28T16:50:22.153Z,61.13
2022-12-28T16:53:27.211Z,61.18
2022-12-28T16:56:35.060Z,61.43
2022-12-28T16:59:50.462Z,61.30
2022-12-28T17:03:11.794Z,61.41
2022-12-28T17:06:21.551Z,61.26
2022-12-28T17:09:26.303Z,61.43
2022-12-28T17:12:29.552Z,61.46
2022-12-28T17:15:32.938Z,61.32
2022-12-28T17:18:37.561Z,61.19
2022-12-28T17:21:40.957Z,61.40
2022-12-28T17:24:44.333Z,61.29
2022-12-28T17:27:47.624Z,61.24
2022-12-28T17:30:51.073Z,61.37
2022-12-28T17:33:57.832Z,61.48
2022-12-28T17:37:01.179Z,61.46
2022-12-28T17:40:04.814Z,61.42
2022-12-28T17:43:08.515Z,61.48
2022-12-28T17:46:11.791Z,61.36
2022-12-28T17:49:16.736Z,61.35
2022-12-28T17:52:22.337Z,61.28
2022-12-28T17:55:25.607Z,61.42
2022-12-28T17:58:29.089Z,61.43
2022-12-28T18:01:32.794Z,61.42
2022-12-28T18:04:36.960Z,61.37
2022-12-28T18:07:40.212Z,61.60
2022-12-28T18:10:44.256Z,61.41
2022-12-28T18:13:47.996Z,61.37
2022-12-28T18:16:51.278Z,61.47
2022-12-28T18:19:56.035Z,61.50
2022-12-28T18:22:59.444Z,61.34
2022-12-28T18:26:26.259Z,61.50
2022-12-28T18:29:30.411Z,61.25
2022-12-28T18:32:33.687Z,61.50
2022-12-28T18:35:36.996Z,61.30
2022-12-28T18:38:45.114Z,61.41
2022-12-28T18:41:50.414Z,61.43
2022-12-28T18:44:53.800Z,61.31
2022-12-28T18:47:57.524Z,61.30
2022-12-28T18:51:05.599Z,61.15
2022-12-28T18:54:08.764Z,61.48
2022-12-28T18:57:12.285Z,61.12
2022-12-28T19:00:15.944Z,61.32
2022-12-28T19:03:19.439Z,61.24
2022-12-28T19:06:23.492Z,61.29
2022-12-28T19:09:26.783Z,61.51
2022-12-28T19:12:30.008Z,61.28
2022-12-28T19:15:33.329Z,61.36
2022-12-28T19:18:36.940Z,61.07
2022-12-28T19:21:42.441Z,61.29
2022-12-28T19:24:47.063Z,61.20
2022-12-28T19:27:50.849Z,61.31
2022-12-28T19:30:57.031Z,61.27
2022-12-28T19:34:03.163Z,61.43
2022-12-28T19:37:06.560Z,61.04
2022-12-28T19:40:09.935Z,61.18
2022-12-28T19:43:13.257Z,61.09
2022-12-28T19:46:23.365Z,60.98
2022-12-28T19:49:26.794Z,61.19
2022-12-28T19:52:30.069Z,60.70
2022-12-28T19:55:34.666Z,61.06
2022-12-28T19:58:41.067Z,61.21
2022-12-28T20:01:44.564Z,60.84
2022-12-28T20:04:48.075Z,61.10
2022-12-28T20:07:51.552Z,60.98
2022-12-28T20:10:56.511Z,60.76
2022-12-28T20:14:02.152Z,60.97
2022-12-28T20:17:05.453Z,60.84
2022-12-28T20:20:09.066Z,61.01
2022-12-28T20:23:12.378Z,60.82
2022-12-28T20:26:16.538Z,60.83
2022-12-28T20:29:19.907Z,60.78
2022-12-28T20:32:23.193Z,60.79
2022-12-28T20:35:26.586Z,60.83
2022-12-28T20:38:30.229Z,60.78
2022-12-28T20:41:52.763Z,60.76
2022-12-28T20:44:56.957Z,60.69
2022-12-28T20:48:00.989Z,60.61
2022-12-28T20:51:04.355Z,60.80
2022-12-28T20:54:07.715Z,60.71
2022-12-28T20:57:10.960Z,60.96
2022-12-28T21:00:14.761Z,60.50
2022-12-28T21:03:18.051Z,60.76
2022-12-28T21:06:21.485Z,60.84
2022-12-28T21:09:24.781Z,60.82
2022-12-28T21:12:28.355Z,60.78
2022-12-28T21:15:31.862Z,60.70
2022-12-28T21:18:35.811Z,60.42
2022-12-28T21:21:39.503Z,60.74
2022-12-28T21:24:42.966Z,60.55
2022-12-28T21:27:46.769Z,60.66
2022-12-28T21:30:55.215Z,60.54
2022-12-28T21:33:58.684Z,60.69
2022-12-28T21:37:21.914Z,60.37
2022-12-28T21:40:25.263Z,60.30
2022-12-28T21:43:30.101Z,60.62
2022-12-28T21:46:33.342Z,60.66
2022-12-28T21:49:36.640Z,60.61
2022-12-28T21:52:39.935Z,60.67
2022-12-28T21:55:43.239Z,60.49
2022-12-28T21:58:46.660Z,60.46
2022-12-28T22:02:08.669Z,60.46
2022-12-28T22:05:30.499Z,60.41
2022-12-28T22:08:52.902Z,60.60
2022-12-28T22:12:14.610Z,60.42
2022-12-28T22:15:38.939Z,60.34
2022-12-28T22:19:01.729Z,60.30
2022-12-28T22:22:06.083Z,60.57
2022-12-28T22:25:11.177Z,60.23
2022-12-28T22:28:14.794Z,60.01
2022-12-28T22:31:18.152Z,60.08
2022-12-28T22:34:21.594Z,60.09
2022-12-28T22:37:24.925Z,60.17
2022-12-28T22:40:30.284Z,60.27
2022-12-28T22:43:34.007Z,60.22
2022-12-28T22:46:37.418Z,60.28
2022-12-28T22:49:41.428Z,60.15
2022-12-28T22:52:44.804Z,60.17
2022-12-28T22:56:02.492Z,60.32
2022-12-28T22:59:08.568Z,60.15
2022-12-28T23:02:14.390Z,60.09
2022-12-28T23:05:17.874Z,60.20
2022-12-28T23:08:21.211Z,60.21
2022-12-28T23:11:36.907Z,59.98
2022-12-28T23:14:58.663Z,60.01
2022-12-28T23:18:20.617Z,60.32
2022-12-28T23:21:42.530Z,60.02
2022-12-28T23:25:04.503Z,60.00
2022-12-28T23:28:10.880Z,59.99
2022-12-28T23:31:14.152Z,59.92
2022-12-28T23:34:17.404Z,60.16
2022-12-28T23:37:20.649Z,60.11
2022-12-28T23:40:24.251Z,59.90
2022-12-28T23:43:27.569Z,60.15
2022-12-28T23:46:30.911Z,60.10
2022-12-28T23:49:34.173Z,59.89
2022-12-28T23:52:37.433Z,60.03
2022-12-28T23:55:40.642Z,59.94
2022-12-28T23:58:43.871Z,60.10
